sensor_id;sensor_type;location;lat;lon;timestamp;temperature;humidity
7048;DHT22;3565;53.254;10.352;2023-08-31T00:02:29;13.70;1.00
7048;DHT22;3565;53.254;10.352;2023-08-31T00:04:58;13.70;1.00
7048;DHT22;3565;53.254;10.352;2023-08-31T00:07:27;13.70;1.00
7048;DHT22;3565;53.254;10.352;2023-08-31T00:12:33;13.70;1.00
7048;DHT22;3565;53.254;10.352;2023-08-31T00:15:04;13.70;1.00
7048;DHT22;3565;53.254;10.352;2023-08-31T00:17:33;13.60;1.00
7048;DHT22;3565;53.254;10.352;2023-08-31T00:22:39;13.70;1.00
7048;DHT22;3565;53.254;10.352;2023-08-31T00:25:09;13.70;1.00
7048;DHT22;3565;53.254;10.352;2023-08-31T00:27:38;13.60;1.00
7048;DHT22;3565;53.254;10.352;2023-08-31T00:32:45;13.60;1.00
7048;DHT22;3565;53.254;10.352;2023-08-31T00:35:16;13.60;1.00
7048;DHT22;3565;53.254;10.352;2023-08-31T00:37:44;13.60;1.00
7048;DHT22;3565;53.254;10.352;2023-08-31T00:42:50;13.50;1.00
7048;DHT22;3565;53.254;10.352;2023-08-31T00:45:20;13.50;1.00
7048;DHT22;3565;53.254;10.352;2023-08-31T00:47:50;13.40;1.00
7048;DHT22;3565;53.254;10.352;2023-08-31T00:52:56;13.40;21.40
7048;DHT22;3565;53.254;10.352;2023-08-31T00:55:26;13.40;49.30
7048;DHT22;3565;53.254;10.352;2023-08-31T00:57:55;13.30;42.80
7048;DHT22;3565;53.254;10.352;2023-08-31T01:03:08;13.30;84.10
7048;DHT22;3565;53.254;10.352;2023-08-31T01:08:24;13.30;65.50
7048;DHT22;3565;53.254;10.352;2023-08-31T01:13:38;13.30;84.60
7048;DHT22;3565;53.254;10.352;2023-08-31T01:16:09;13.30;91.80
7048;DHT22;3565;53.254;10.352;2023-08-31T01:18:40;13.20;92.50
7048;DHT22;3565;53.254;10.352;2023-08-31T01:21:16;13.20;95.90
7048;DHT22;3565;53.254;10.352;2023-08-31T01:23:52;13.20;99.90
7048;DHT22;3565;53.254;10.352;2023-08-31T01:26:22;13.20;99.90
7048;DHT22;3565;53.254;10.352;2023-08-31T01:28:52;13.20;99.90
7048;DHT22;3565;53.254;10.352;2023-08-31T01:31:21;13.20;99.90
7048;DHT22;3565;53.254;10.352;2023-08-31T01:33:50;13.20;96.00
7048;DHT22;3565;53.254;10.352;2023-08-31T01:41:43;13.10;99.90
7048;DHT22;3565;53.254;10.352;2023-08-31T01:44:15;13.10;99.90
7048;DHT22;3565;53.254;10.352;2023-08-31T01:46:47;13.10;99.90
7048;DHT22;3565;53.254;10.352;2023-08-31T01:51:53;13.00;99.90
7048;DHT22;3565;53.254;10.352;2023-08-31T01:54:22;13.00;99.90
7048;DHT22;3565;53.254;10.352;2023-08-31T01:56:51;12.90;99.90
7048;DHT22;3565;53.254;10.352;2023-08-31T02:01:57;12.90;99.90
7048;DHT22;3565;53.254;10.352;2023-08-31T02:07:05;12.90;65.50
7048;DHT22;3565;53.254;10.352;2023-08-31T02:12:11;12.80;91.00
7048;DHT22;3565;53.254;10.352;2023-08-31T02:14:40;12.70;97.10
7048;DHT22;3565;53.254;10.352;2023-08-31T02:17:09;12.70;90.50
7048;DHT22;3565;53.254;10.352;2023-08-31T02:19:38;12.70;98.90
7048;DHT22;3565;53.254;10.352;2023-08-31T02:24:44;12.60;92.30
7048;DHT22;3565;53.254;10.352;2023-08-31T02:27:13;12.60;99.90
7048;DHT22;3565;53.254;10.352;2023-08-31T02:29:42;12.60;95.60
7048;DHT22;3565;53.254;10.352;2023-08-31T02:34:49;12.60;99.90
7048;DHT22;3565;53.254;10.352;2023-08-31T02:37:18;12.60;99.90
7048;DHT22;3565;53.254;10.352;2023-08-31T02:39:47;12.60;74.00
7048;DHT22;3565;53.254;10.352;2023-08-31T02:44:54;12.50;95.60
7048;DHT22;3565;53.254;10.352;2023-08-31T02:47:23;12.50;64.20
7048;DHT22;3565;53.254;10.352;2023-08-31T02:52:31;12.40;35.00
7048;DHT22;3565;53.254;10.352;2023-08-31T02:55:00;12.40;52.20
7048;DHT22;3565;53.254;10.352;2023-08-31T02:57:30;12.40;62.90
7048;DHT22;3565;53.254;10.352;2023-08-31T03:02:35;12.30;50.50
7048;DHT22;3565;53.254;10.352;2023-08-31T03:05:06;12.20;46.30
7048;DHT22;3565;53.254;10.352;2023-08-31T03:07:35;12.20;50.80
7048;DHT22;3565;53.254;10.352;2023-08-31T03:12:41;12.10;58.60
7048;DHT22;3565;53.254;10.352;2023-08-31T03:15:10;12.20;54.10
7048;DHT22;3565;53.254;10.352;2023-08-31T03:17:39;12.10;41.00
7048;DHT22;3565;53.254;10.352;2023-08-31T03:22:46;12.10;53.00
7048;DHT22;3565;53.254;10.352;2023-08-31T03:25:15;12.00;24.00
7048;DHT22;3565;53.254;10.352;2023-08-31T03:27:44;12.10;25.60
7048;DHT22;3565;53.254;10.352;2023-08-31T03:32:51;11.90;29.60
7048;DHT22;3565;53.254;10.352;2023-08-31T03:35:20;11.90;27.10
7048;DHT22;3565;53.254;10.352;2023-08-31T03:37:51;11.80;32.40
7048;DHT22;3565;53.254;10.352;2023-08-31T03:42:57;11.80;41.00
7048;DHT22;3565;53.254;10.352;2023-08-31T03:45:26;11.80;9.30
7048;DHT22;3565;53.254;10.352;2023-08-31T03:47:55;11.80;21.70
7048;DHT22;3565;53.254;10.352;2023-08-31T03:50:25;11.80;20.90
7048;DHT22;3565;53.254;10.352;2023-08-31T03:55:32;11.70;2.80
7048;DHT22;3565;53.254;10.352;2023-08-31T03:58:01;11.70;1.00
7048;DHT22;3565;53.254;10.352;2023-08-31T04:00:30;11.70;1.00
7048;DHT22;3565;53.254;10.352;2023-08-31T04:05:36;11.60;1.00
7048;DHT22;3565;53.254;10.352;2023-08-31T04:10:43;11.60;14.60
7048;DHT22;3565;53.254;10.352;2023-08-31T04:15:48;11.50;1.00
7048;DHT22;3565;53.254;10.352;2023-08-31T04:18:18;11.40;1.00
7048;DHT22;3565;53.254;10.352;2023-08-31T04:20:51;11.40;11.60
7048;DHT22;3565;53.254;10.352;2023-08-31T04:25:57;11.50;22.90
7048;DHT22;3565;53.254;10.352;2023-08-31T04:28:27;11.50;1.00
7048;DHT22;3565;53.254;10.352;2023-08-31T04:30:56;11.40;4.80
7048;DHT22;3565;53.254;10.352;2023-08-31T04:33:25;11.40;5.60
7048;DHT22;3565;53.254;10.352;2023-08-31T04:35:54;11.40;1.00
7048;DHT22;3565;53.254;10.352;2023-08-31T04:38:23;11.40;1.00
7048;DHT22;3565;53.254;10.352;2023-08-31T04:40:52;11.40;5.50
7048;DHT22;3565;53.254;10.352;2023-08-31T04:43:21;11.40;11.80
7048;DHT22;3565;53.254;10.352;2023-08-31T04:45:52;11.40;16.90
7048;DHT22;3565;53.254;10.352;2023-08-31T04:51:01;11.40;52.70
7048;DHT22;3565;53.254;10.352;2023-08-31T04:53:31;11.40;40.60
7048;DHT22;3565;53.254;10.352;2023-08-31T04:56:01;11.40;37.40
7048;DHT22;3565;53.254;10.352;2023-08-31T05:01:09;11.40;33.70
7048;DHT22;3565;53.254;10.352;2023-08-31T05:03:38;11.50;35.30
7048;DHT22;3565;53.254;10.352;2023-08-31T05:06:07;11.40;16.00
7048;DHT22;3565;53.254;10.352;2023-08-31T05:11:13;11.50;20.30
7048;DHT22;3565;53.254;10.352;2023-08-31T05:13:42;11.50;20.80
7048;DHT22;3565;53.254;10.352;2023-08-31T05:16:11;11.50;24.80
7048;DHT22;3565;53.254;10.352;2023-08-31T05:18:41;11.40;37.60
7048;DHT22;3565;53.254;10.352;2023-08-31T05:23:47;11.50;49.50
7048;DHT22;3565;53.254;10.352;2023-08-31T05:26:16;11.60;27.00
7048;DHT22;3565;53.254;10.352;2023-08-31T05:28:45;11.70;21.70
7048;DHT22;3565;53.254;10.352;2023-08-31T05:33:51;11.90;1.00
7048;DHT22;3565;53.254;10.352;2023-08-31T05:36:20;12.00;1.00
7048;DHT22;3565;53.254;10.352;2023-08-31T05:38:49;12.10;1.00
7048;DHT22;3565;53.254;10.352;2023-08-31T05:43:59;12.10;1.00
7048;DHT22;3565;53.254;10.352;2023-08-31T05:46:28;12.10;1.00
7048;DHT22;3565;53.254;10.352;2023-08-31T05:51:34;12.40;99.90
7048;DHT22;3565;53.254;10.352;2023-08-31T05:54:04;12.50;99.90
7048;DHT22;3565;53.254;10.352;2023-08-31T05:56:34;12.50;99.90
7048;DHT22;3565;53.254;10.352;2023-08-31T06:01:40;12.80;1.00
7048;DHT22;3565;53.254;10.352;2023-08-31T06:04:10;12.80;1.00
7048;DHT22;3565;53.254;10.352;2023-08-31T06:06:40;13.00;1.00
7048;DHT22;3565;53.254;10.352;2023-08-31T06:11:46;13.00;1.00
7048;DHT22;3565;53.254;10.352;2023-08-31T06:14:15;13.00;99.90
7048;DHT22;3565;53.254;10.352;2023-08-31T06:16:45;13.10;99.90
7048;DHT22;3565;53.254;10.352;2023-08-31T06:21:51;13.30;99.90
7048;DHT22;3565;53.254;10.352;2023-08-31T06:24:20;13.50;27.40
7048;DHT22;3565;53.254;10.352;2023-08-31T06:26:50;13.60;99.90
7048;DHT22;3565;53.254;10.352;2023-08-31T06:31:57;13.90;1.00
7048;DHT22;3565;53.254;10.352;2023-08-31T06:34:26;14.00;1.00
7048;DHT22;3565;53.254;10.352;2023-08-31T06:36:54;13.90;1.00
7048;DHT22;3565;53.254;10.352;2023-08-31T06:39:25;13.90;99.90
7048;DHT22;3565;53.254;10.352;2023-08-31T06:44:31;14.60;99.90
7048;DHT22;3565;53.254;10.352;2023-08-31T06:47:00;14.60;99.90
7048;DHT22;3565;53.254;10.352;2023-08-31T06:49:30;14.80;25.90
7048;DHT22;3565;53.254;10.352;2023-08-31T06:54:38;15.10;99.90
7048;DHT22;3565;53.254;10.352;2023-08-31T06:57:07;15.00;1.00
7048;DHT22;3565;53.254;10.352;2023-08-31T06:59:36;15.40;1.00
7048;DHT22;3565;53.254;10.352;2023-08-31T07:04:46;15.90;99.80
7048;DHT22;3565;53.254;10.352;2023-08-31T07:07:15;16.30;99.90
7048;DHT22;3565;53.254;10.352;2023-08-31T07:12:21;16.50;1.00
7048;DHT22;3565;53.254;10.352;2023-08-31T07:14:50;16.40;1.00
7048;DHT22;3565;53.254;10.352;2023-08-31T07:17:20;16.30;1.00
7048;DHT22;3565;53.254;10.352;2023-08-31T07:22:26;16.50;1.00
7048;DHT22;3565;53.254;10.352;2023-08-31T07:24:55;16.50;1.00
7048;DHT22;3565;53.254;10.352;2023-08-31T07:27:24;17.20;1.00
7048;DHT22;3565;53.254;10.352;2023-08-31T07:32:32;17.80;1.00
7048;DHT22;3565;53.254;10.352;2023-08-31T07:35:01;17.90;1.00
7048;DHT22;3565;53.254;10.352;2023-08-31T07:37:32;17.60;1.00
7048;DHT22;3565;53.254;10.352;2023-08-31T07:40:02;17.60;1.00
7048;DHT22;3565;53.254;10.352;2023-08-31T07:42:33;17.80;1.00
7048;DHT22;3565;53.254;10.352;2023-08-31T07:45:03;18.20;1.00
7048;DHT22;3565;53.254;10.352;2023-08-31T07:47:33;18.20;1.00
7048;DHT22;3565;53.254;10.352;2023-08-31T07:50:02;18.90;1.00
7048;DHT22;3565;53.254;10.352;2023-08-31T07:52:31;18.20;1.00
7048;DHT22;3565;53.254;10.352;2023-08-31T07:55:01;17.60;1.00
7048;DHT22;3565;53.254;10.352;2023-08-31T07:57:31;17.30;1.00
7048;DHT22;3565;53.254;10.352;2023-08-31T08:02:40;16.50;1.00
7048;DHT22;3565;53.254;10.352;2023-08-31T08:05:09;15.90;1.00
7048;DHT22;3565;53.254;10.352;2023-08-31T08:07:38;15.90;1.00
7048;DHT22;3565;53.254;10.352;2023-08-31T08:12:46;15.10;1.00
7048;DHT22;3565;53.254;10.352;2023-08-31T08:15:17;14.90;97.30
7048;DHT22;3565;53.254;10.352;2023-08-31T08:17:46;15.30;99.90
7048;DHT22;3565;53.254;10.352;2023-08-31T08:22:53;15.50;1.00
7048;DHT22;3565;53.254;10.352;2023-08-31T08:25:23;15.30;15.90
7048;DHT22;3565;53.254;10.352;2023-08-31T08:27:52;15.60;1.00
7048;DHT22;3565;53.254;10.352;2023-08-31T08:30:21;16.00;1.00
7048;DHT22;3565;53.254;10.352;2023-08-31T08:32:50;16.70;1.00
7048;DHT22;3565;53.254;10.352;2023-08-31T08:37:56;18.00;1.00
7048;DHT22;3565;53.254;10.352;2023-08-31T08:43:06;18.20;1.00
7048;DHT22;3565;53.254;10.352;2023-08-31T08:45:38;18.10;1.00
7048;DHT22;3565;53.254;10.352;2023-08-31T08:48:09;18.20;1.00
7048;DHT22;3565;53.254;10.352;2023-08-31T08:50:38;18.20;1.00
7048;DHT22;3565;53.254;10.352;2023-08-31T08:53:07;17.80;1.00
7048;DHT22;3565;53.254;10.352;2023-08-31T08:58:13;17.20;1.00
7048;DHT22;3565;53.254;10.352;2023-08-31T09:00:42;17.00;1.00
7048;DHT22;3565;53.254;10.352;2023-08-31T09:05:49;17.80;1.00
7048;DHT22;3565;53.254;10.352;2023-08-31T09:08:19;17.90;1.00
7048;DHT22;3565;53.254;10.352;2023-08-31T09:10:48;17.70;1.00
7048;DHT22;3565;53.254;10.352;2023-08-31T09:15:55;17.80;1.00
7048;DHT22;3565;53.254;10.352;2023-08-31T09:21:04;17.80;1.00
7048;DHT22;3565;53.254;10.352;2023-08-31T09:23:33;18.40;1.00
7048;DHT22;3565;53.254;10.352;2023-08-31T09:26:02;17.90;1.00
7048;DHT22;3565;53.254;10.352;2023-08-31T09:28:33;17.60;1.00
7048;DHT22;3565;53.254;10.352;2023-08-31T09:33:51;16.80;1.00
7048;DHT22;3565;53.254;10.352;2023-08-31T09:36:21;16.40;1.00
7048;DHT22;3565;53.254;10.352;2023-08-31T09:41:29;15.60;1.00
7048;DHT22;3565;53.254;10.352;2023-08-31T09:46:47;15.40;1.00
7048;DHT22;3565;53.254;10.352;2023-08-31T09:51:54;15.80;1.00
7048;DHT22;3565;53.254;10.352;2023-08-31T09:54:23;16.70;1.00
7048;DHT22;3565;53.254;10.352;2023-08-31T09:59:33;17.20;1.00
7048;DHT22;3565;53.254;10.352;2023-08-31T10:04:41;17.20;1.00
7048;DHT22;3565;53.254;10.352;2023-08-31T10:07:12;17.40;1.00
7048;DHT22;3565;53.254;10.352;2023-08-31T10:12:21;17.00;1.00
7048;DHT22;3565;53.254;10.352;2023-08-31T10:14:50;17.00;1.00
7048;DHT22;3565;53.254;10.352;2023-08-31T10:17:20;17.80;1.00
7048;DHT22;3565;53.254;10.352;2023-08-31T10:22:27;17.90;1.00
7048;DHT22;3565;53.254;10.352;2023-08-31T10:25:01;17.90;1.00
7048;DHT22;3565;53.254;10.352;2023-08-31T10:27:37;17.70;1.00
7048;DHT22;3565;53.254;10.352;2023-08-31T10:33:21;17.60;1.00
7048;DHT22;3565;53.254;10.352;2023-08-31T10:38:31;16.90;1.00
7048;DHT22;3565;53.254;10.352;2023-08-31T10:43:47;17.00;1.00
7048;DHT22;3565;53.254;10.352;2023-08-31T10:46:19;17.10;1.00
7048;DHT22;3565;53.254;10.352;2023-08-31T10:48:54;16.60;1.00
7048;DHT22;3565;53.254;10.352;2023-08-31T10:51:25;17.20;1.00
7048;DHT22;3565;53.254;10.352;2023-08-31T10:57:06;17.40;1.00
7048;DHT22;3565;53.254;10.352;2023-08-31T11:02:44;18.20;1.00
7048;DHT22;3565;53.254;10.352;2023-08-31T11:05:15;19.20;1.00
7048;DHT22;3565;53.254;10.352;2023-08-31T11:07:45;19.60;1.00
7048;DHT22;3565;53.254;10.352;2023-08-31T11:12:54;20.20;1.00
7048;DHT22;3565;53.254;10.352;2023-08-31T11:15:25;21.70;1.00
7048;DHT22;3565;53.254;10.352;2023-08-31T11:17:55;21.70;1.00
7048;DHT22;3565;53.254;10.352;2023-08-31T11:20:25;22.40;1.00
7048;DHT22;3565;53.254;10.352;2023-08-31T11:22:55;21.40;1.00
7048;DHT22;3565;53.254;10.352;2023-08-31T11:25:24;20.80;1.00
7048;DHT22;3565;53.254;10.352;2023-08-31T11:27:57;20.30;1.00
7048;DHT22;3565;53.254;10.352;2023-08-31T11:30:27;20.10;1.00
7048;DHT22;3565;53.254;10.352;2023-08-31T11:35:41;20.60;1.00
7048;DHT22;3565;53.254;10.352;2023-08-31T11:38:13;20.90;1.00
7048;DHT22;3565;53.254;10.352;2023-08-31T11:40:42;20.70;1.00
7048;DHT22;3565;53.254;10.352;2023-08-31T11:45:49;19.80;1.00
7048;DHT22;3565;53.254;10.352;2023-08-31T11:48:18;19.90;1.00
7048;DHT22;3565;53.254;10.352;2023-08-31T11:50:47;20.20;1.00
7048;DHT22;3565;53.254;10.352;2023-08-31T11:55:54;20.90;1.00
7048;DHT22;3565;53.254;10.352;2023-08-31T11:58:25;21.50;1.00
7048;DHT22;3565;53.254;10.352;2023-08-31T12:03:44;20.50;1.00
7048;DHT22;3565;53.254;10.352;2023-08-31T12:06:17;21.10;1.00
7048;DHT22;3565;53.254;10.352;2023-08-31T12:08:46;21.30;1.00
7048;DHT22;3565;53.254;10.352;2023-08-31T12:13:53;20.00;1.00
7048;DHT22;3565;53.254;10.352;2023-08-31T12:16:22;19.30;1.00
7048;DHT22;3565;53.254;10.352;2023-08-31T12:18:51;19.20;1.00
7048;DHT22;3565;53.254;10.352;2023-08-31T12:21:21;19.00;1.00
7048;DHT22;3565;53.254;10.352;2023-08-31T12:23:50;18.80;1.00
7048;DHT22;3565;53.254;10.352;2023-08-31T12:28:57;18.30;1.00
7048;DHT22;3565;53.254;10.352;2023-08-31T12:34:06;19.80;1.00
7048;DHT22;3565;53.254;10.352;2023-08-31T12:36:35;21.00;1.00
7048;DHT22;3565;53.254;10.352;2023-08-31T12:41:43;22.70;1.00
7048;DHT22;3565;53.254;10.352;2023-08-31T12:44:12;23.10;1.00
7048;DHT22;3565;53.254;10.352;2023-08-31T12:46:41;23.50;1.00
7048;DHT22;3565;53.254;10.352;2023-08-31T12:51:47;24.30;1.00
7048;DHT22;3565;53.254;10.352;2023-08-31T12:54:18;24.60;1.00
7048;DHT22;3565;53.254;10.352;2023-08-31T12:56:47;24.50;1.00
7048;DHT22;3565;53.254;10.352;2023-08-31T13:01:53;23.00;1.00
7048;DHT22;3565;53.254;10.352;2023-08-31T13:04:21;22.40;1.00
7048;DHT22;3565;53.254;10.352;2023-08-31T13:06:51;21.90;1.00
7048;DHT22;3565;53.254;10.352;2023-08-31T13:11:57;20.70;1.00
7048;DHT22;3565;53.254;10.352;2023-08-31T13:14:26;20.90;1.00
7048;DHT22;3565;53.254;10.352;2023-08-31T13:16:55;21.20;1.00
7048;DHT22;3565;53.254;10.352;2023-08-31T13:19:24;22.10;1.00
7048;DHT22;3565;53.254;10.352;2023-08-31T13:24:30;22.30;1.00
7048;DHT22;3565;53.254;10.352;2023-08-31T13:26:59;21.70;1.00
7048;DHT22;3565;53.254;10.352;2023-08-31T13:29:28;21.10;1.00
7048;DHT22;3565;53.254;10.352;2023-08-31T13:34:34;19.80;1.00
7048;DHT22;3565;53.254;10.352;2023-08-31T13:37:04;19.90;1.00
7048;DHT22;3565;53.254;10.352;2023-08-31T13:39:35;19.50;1.00
7048;DHT22;3565;53.254;10.352;2023-08-31T13:44:42;17.70;1.00
7048;DHT22;3565;53.254;10.352;2023-08-31T13:47:11;16.30;1.00
7048;DHT22;3565;53.254;10.352;2023-08-31T13:52:17;14.90;1.00
7048;DHT22;3565;53.254;10.352;2023-08-31T13:54:48;14.50;1.00
7048;DHT22;3565;53.254;10.352;2023-08-31T13:57:17;14.30;1.00
7048;DHT22;3565;53.254;10.352;2023-08-31T13:59:46;14.10;1.00
7048;DHT22;3565;53.254;10.352;2023-08-31T14:04:52;14.20;1.00
7048;DHT22;3565;53.254;10.352;2023-08-31T14:07:22;14.10;1.00
7048;DHT22;3565;53.254;10.352;2023-08-31T14:09:51;13.90;1.00
7048;DHT22;3565;53.254;10.352;2023-08-31T14:12:20;13.70;1.00
7048;DHT22;3565;53.254;10.352;2023-08-31T14:14:49;13.80;1.00
7048;DHT22;3565;53.254;10.352;2023-08-31T14:19:56;14.00;1.00
7048;DHT22;3565;53.254;10.352;2023-08-31T14:22:25;14.60;1.00
7048;DHT22;3565;53.254;10.352;2023-08-31T14:24:54;15.00;1.00
7048;DHT22;3565;53.254;10.352;2023-08-31T14:27:23;15.60;1.00
7048;DHT22;3565;53.254;10.352;2023-08-31T14:29:53;15.80;1.00
7048;DHT22;3565;53.254;10.352;2023-08-31T14:32:22;16.10;1.00
7048;DHT22;3565;53.254;10.352;2023-08-31T14:34:51;16.20;1.00
7048;DHT22;3565;53.254;10.352;2023-08-31T14:39:57;16.70;1.00
7048;DHT22;3565;53.254;10.352;2023-08-31T14:42:26;17.00;1.00
7048;DHT22;3565;53.254;10.352;2023-08-31T14:44:55;16.90;1.00
7048;DHT22;3565;53.254;10.352;2023-08-31T14:47:24;17.40;1.00
7048;DHT22;3565;53.254;10.352;2023-08-31T14:49:54;17.70;1.00
7048;DHT22;3565;53.254;10.352;2023-08-31T14:52:24;18.00;1.00
7048;DHT22;3565;53.254;10.352;2023-08-31T14:54:53;18.00;1.00
7048;DHT22;3565;53.254;10.352;2023-08-31T14:57:22;18.50;1.00
7048;DHT22;3565;53.254;10.352;2023-08-31T14:59:51;18.60;1.00
7048;DHT22;3565;53.254;10.352;2023-08-31T15:02:21;18.20;1.00
7048;DHT22;3565;53.254;10.352;2023-08-31T15:04:50;18.80;1.00
7048;DHT22;3565;53.254;10.352;2023-08-31T15:07:20;19.20;1.00
7048;DHT22;3565;53.254;10.352;2023-08-31T15:09:49;19.60;1.00
7048;DHT22;3565;53.254;10.352;2023-08-31T15:12:18;19.30;1.00
7048;DHT22;3565;53.254;10.352;2023-08-31T15:14:47;19.50;1.00
7048;DHT22;3565;53.254;10.352;2023-08-31T15:17:16;19.20;1.00
7048;DHT22;3565;53.254;10.352;2023-08-31T15:19:45;19.70;1.00
7048;DHT22;3565;53.254;10.352;2023-08-31T15:24:53;19.80;1.00
7048;DHT22;3565;53.254;10.352;2023-08-31T15:27:21;19.70;1.00
7048;DHT22;3565;53.254;10.352;2023-08-31T15:29:52;20.10;1.00
7048;DHT22;3565;53.254;10.352;2023-08-31T15:32:20;20.00;1.00
7048;DHT22;3565;53.254;10.352;2023-08-31T15:34:49;19.70;1.00
7048;DHT22;3565;53.254;10.352;2023-08-31T15:39:55;19.70;1.00
7048;DHT22;3565;53.254;10.352;2023-08-31T15:45:04;20.40;1.00
7048;DHT22;3565;53.254;10.352;2023-08-31T15:47:33;20.60;1.00
7048;DHT22;3565;53.254;10.352;2023-08-31T15:52:39;20.10;1.00
7048;DHT22;3565;53.254;10.352;2023-08-31T15:55:09;19.70;1.00
7048;DHT22;3565;53.254;10.352;2023-08-31T15:57:38;19.60;1.00
7048;DHT22;3565;53.254;10.352;2023-08-31T16:02:45;18.30;1.00
7048;DHT22;3565;53.254;10.352;2023-08-31T16:05:14;18.40;1.00
7048;DHT22;3565;53.254;10.352;2023-08-31T16:07:43;18.30;1.00
7048;DHT22;3565;53.254;10.352;2023-08-31T16:12:53;17.90;1.00
7048;DHT22;3565;53.254;10.352;2023-08-31T16:15:24;17.20;1.00
7048;DHT22;3565;53.254;10.352;2023-08-31T16:17:53;17.20;1.00
7048;DHT22;3565;53.254;10.352;2023-08-31T16:20:23;17.00;1.00
7048;DHT22;3565;53.254;10.352;2023-08-31T16:22:52;16.70;1.00
7048;DHT22;3565;53.254;10.352;2023-08-31T16:25:21;16.70;1.00
7048;DHT22;3565;53.254;10.352;2023-08-31T16:30:28;16.90;1.00
7048;DHT22;3565;53.254;10.352;2023-08-31T16:35:34;17.10;1.00
7048;DHT22;3565;53.254;10.352;2023-08-31T16:38:04;17.00;1.00
7048;DHT22;3565;53.254;10.352;2023-08-31T16:40:33;17.00;1.00
7048;DHT22;3565;53.254;10.352;2023-08-31T16:43:03;17.10;1.00
7048;DHT22;3565;53.254;10.352;2023-08-31T16:48:09;17.80;1.00
7048;DHT22;3565;53.254;10.352;2023-08-31T16:53:15;18.00;1.00
7048;DHT22;3565;53.254;10.352;2023-08-31T16:55:45;17.60;1.00
7048;DHT22;3565;53.254;10.352;2023-08-31T16:58:14;17.00;1.00
7048;DHT22;3565;53.254;10.352;2023-08-31T17:03:21;16.70;1.00
7048;DHT22;3565;53.254;10.352;2023-08-31T17:05:54;17.00;1.00
7048;DHT22;3565;53.254;10.352;2023-08-31T17:08:23;17.20;1.00
7048;DHT22;3565;53.254;10.352;2023-08-31T17:10:52;17.00;1.00
7048;DHT22;3565;53.254;10.352;2023-08-31T17:13:22;16.60;1.00
7048;DHT22;3565;53.254;10.352;2023-08-31T17:15:51;16.70;1.00
7048;DHT22;3565;53.254;10.352;2023-08-31T17:20:58;16.30;1.00
7048;DHT22;3565;53.254;10.352;2023-08-31T17:23:27;16.10;1.00
7048;DHT22;3565;53.254;10.352;2023-08-31T17:25:56;15.90;1.00
7048;DHT22;3565;53.254;10.352;2023-08-31T17:28:25;15.80;1.00
7048;DHT22;3565;53.254;10.352;2023-08-31T17:33:31;15.60;1.00
7048;DHT22;3565;53.254;10.352;2023-08-31T17:36:00;15.70;1.00
7048;DHT22;3565;53.254;10.352;2023-08-31T17:38:29;15.70;1.00
7048;DHT22;3565;53.254;10.352;2023-08-31T17:40:59;15.70;1.00
7048;DHT22;3565;53.254;10.352;2023-08-31T17:43:28;15.50;1.00
7048;DHT22;3565;53.254;10.352;2023-08-31T17:45:57;15.40;1.00
7048;DHT22;3565;53.254;10.352;2023-08-31T17:48:27;15.20;1.00
7048;DHT22;3565;53.254;10.352;2023-08-31T17:53:33;15.10;1.00
7048;DHT22;3565;53.254;10.352;2023-08-31T17:56:03;15.00;1.00
7048;DHT22;3565;53.254;10.352;2023-08-31T17:58:32;14.80;1.00
7048;DHT22;3565;53.254;10.352;2023-08-31T18:01:01;14.80;1.00
7048;DHT22;3565;53.254;10.352;2023-08-31T18:03:30;14.70;1.00
7048;DHT22;3565;53.254;10.352;2023-08-31T18:05:59;14.60;1.00
7048;DHT22;3565;53.254;10.352;2023-08-31T18:11:07;14.50;1.00
7048;DHT22;3565;53.254;10.352;2023-08-31T18:13:36;14.40;1.00
7048;DHT22;3565;53.254;10.352;2023-08-31T18:16:05;14.40;1.00
7048;DHT22;3565;53.254;10.352;2023-08-31T18:18:34;14.30;1.00
7048;DHT22;3565;53.254;10.352;2023-08-31T18:23:40;14.20;1.00
7048;DHT22;3565;53.254;10.352;2023-08-31T18:26:09;14.10;95.10
7048;DHT22;3565;53.254;10.352;2023-08-31T18:28:40;14.10;99.90
7048;DHT22;3565;53.254;10.352;2023-08-31T18:33:50;13.90;99.90
7048;DHT22;3565;53.254;10.352;2023-08-31T18:36:20;13.90;99.90
7048;DHT22;3565;53.254;10.352;2023-08-31T18:41:27;13.80;99.90
7048;DHT22;3565;53.254;10.352;2023-08-31T18:43:56;13.80;99.90
7048;DHT22;3565;53.254;10.352;2023-08-31T18:46:25;13.80;99.90
7048;DHT22;3565;53.254;10.352;2023-08-31T18:51:31;13.70;99.90
7048;DHT22;3565;53.254;10.352;2023-08-31T18:54:04;13.50;99.90
7048;DHT22;3565;53.254;10.352;2023-08-31T18:56:33;13.50;99.90
7048;DHT22;3565;53.254;10.352;2023-08-31T18:59:02;13.50;99.90
7048;DHT22;3565;53.254;10.352;2023-08-31T19:04:08;13.30;99.90
7048;DHT22;3565;53.254;10.352;2023-08-31T19:06:37;13.30;99.90
7048;DHT22;3565;53.254;10.352;2023-08-31T19:11:44;13.20;1.00
7048;DHT22;3565;53.254;10.352;2023-08-31T19:14:13;13.20;99.90
7048;DHT22;3565;53.254;10.352;2023-08-31T19:16:42;13.20;1.00
7048;DHT22;3565;53.254;10.352;2023-08-31T19:21:50;13.20;1.00
7048;DHT22;3565;53.254;10.352;2023-08-31T19:24:19;13.20;1.00
7048;DHT22;3565;53.254;10.352;2023-08-31T19:26:48;13.30;1.00
7048;DHT22;3565;53.254;10.352;2023-08-31T19:31:55;13.20;1.00
7048;DHT22;3565;53.254;10.352;2023-08-31T19:34:26;13.20;1.00
7048;DHT22;3565;53.254;10.352;2023-08-31T19:36:55;13.20;99.90
7048;DHT22;3565;53.254;10.352;2023-08-31T19:39:24;13.20;1.00
7048;DHT22;3565;53.254;10.352;2023-08-31T19:44:30;13.10;1.00
7048;DHT22;3565;53.254;10.352;2023-08-31T19:46:59;13.00;1.00
7048;DHT22;3565;53.254;10.352;2023-08-31T19:49:30;13.00;1.00
7048;DHT22;3565;53.254;10.352;2023-08-31T19:54:47;12.90;1.00
7048;DHT22;3565;53.254;10.352;2023-08-31T19:59:55;12.90;1.00
7048;DHT22;3565;53.254;10.352;2023-08-31T20:02:25;12.90;1.00
7048;DHT22;3565;53.254;10.352;2023-08-31T20:04:54;12.90;1.00
7048;DHT22;3565;53.254;10.352;2023-08-31T20:07:23;12.80;1.00
7048;DHT22;3565;53.254;10.352;2023-08-31T20:09:53;12.90;1.00
7048;DHT22;3565;53.254;10.352;2023-08-31T20:15:00;12.90;1.00
7048;DHT22;3565;53.254;10.352;2023-08-31T20:17:31;12.90;1.00
7048;DHT22;3565;53.254;10.352;2023-08-31T20:20:03;12.90;1.00
7048;DHT22;3565;53.254;10.352;2023-08-31T20:22:32;12.80;1.00
7048;DHT22;3565;53.254;10.352;2023-08-31T20:25:00;12.80;23.50
7048;DHT22;3565;53.254;10.352;2023-08-31T20:27:31;12.70;99.90
7048;DHT22;3565;53.254;10.352;2023-08-31T20:32:42;12.70;99.90
7048;DHT22;3565;53.254;10.352;2023-08-31T20:35:12;12.70;99.90
7048;DHT22;3565;53.254;10.352;2023-08-31T20:37:41;12.70;99.90
7048;DHT22;3565;53.254;10.352;2023-08-31T20:40:12;12.70;99.90
7048;DHT22;3565;53.254;10.352;2023-08-31T20:42:42;12.70;99.90
7048;DHT22;3565;53.254;10.352;2023-08-31T20:45:14;12.70;99.90
7048;DHT22;3565;53.254;10.352;2023-08-31T20:47:43;12.70;99.90
7048;DHT22;3565;53.254;10.352;2023-08-31T20:50:13;12.70;99.90
7048;DHT22;3565;53.254;10.352;2023-08-31T20:52:42;12.70;99.90
7048;DHT22;3565;53.254;10.352;2023-08-31T20:57:48;12.60;99.90
7048;DHT22;3565;53.254;10.352;2023-08-31T21:00:18;12.60;99.90
7048;DHT22;3565;53.254;10.352;2023-08-31T21:02:47;12.70;99.90
7048;DHT22;3565;53.254;10.352;2023-08-31T21:05:16;12.60;99.90
7048;DHT22;3565;53.254;10.352;2023-08-31T21:07:45;12.60;99.90
7048;DHT22;3565;53.254;10.352;2023-08-31T21:10:14;12.60;99.90
7048;DHT22;3565;53.254;10.352;2023-08-31T21:15:21;12.60;99.90
7048;DHT22;3565;53.254;10.352;2023-08-31T21:20:27;12.60;99.90
7048;DHT22;3565;53.254;10.352;2023-08-31T21:22:57;12.60;99.90